createdAt,value
2019-04-28T00:01:11.403Z,100309.92
2019-04-28T00:03:41.856Z,100308.31
2019-04-28T00:06:11.052Z,100309.16
2019-04-28T00:08:39.868Z,100305.39
2019-04-28T00:11:08.375Z,100306.72
2019-04-28T00:13:37.266Z,100307.16
2019-04-28T00:16:07.285Z,100303.72
2019-04-28T00:18:35.809Z,100303.72
2019-04-28T00:21:17.851Z,100304.55
2019-04-28T00:24:04.274Z,100313.42
2019-04-28T00:26:34.446Z,100324.89
2019-04-28T00:29:02.948Z,100318.91
2019-04-28T00:31:31.408Z,100315.92
2019-04-28T00:34:01.310Z,100318.64
2019-04-28T00:36:31.250Z,100313.88
2019-04-28T00:39:01.520Z,100314.76
2019-04-28T00:41:30.898Z,100317.31
2019-04-28T00:43:59.525Z,100327.56
2019-04-28T00:46:31.104Z,100324.58
2019-04-28T00:48:59.605Z,100327.95
2019-04-28T00:51:28.044Z,100328.41
2019-04-28T00:53:57.139Z,100328.79
2019-04-28T00:56:25.576Z,100328.41
2019-04-28T00:58:54.021Z,100329.23
2019-04-28T01:01:35.702Z,100327.97
2019-04-28T01:04:04.189Z,100328.40
2019-04-28T01:06:32.652Z,100325.80
2019-04-28T01:09:01.381Z,100330.13
2019-04-28T01:11:31.721Z,100324.20
2019-04-28T01:14:01.737Z,100323.42
2019-04-28T01:16:31.992Z,100326.80
2019-04-28T01:19:13.795Z,100328.85
2019-04-28T01:22:00.439Z,100333.16
2019-04-28T01:24:29.733Z,100333.17
2019-04-28T01:27:00.378Z,100336.11
2019-04-28T01:29:29.491Z,100336.51
2019-04-28T01:32:05.507Z,100332.67
2019-04-28T01:34:33.960Z,100339.45
2019-04-28T01:37:02.466Z,100339.94
2019-04-28T01:39:30.921Z,100351.37
2019-04-28T01:41:59.589Z,100345.87
2019-04-28T01:44:29.576Z,100351.89
2019-04-28T01:47:00.939Z,100357.41
2019-04-28T01:49:29.514Z,100350.20
2019-04-28T01:52:01.156Z,100348.03
2019-04-28T01:54:30.369Z,100350.09
2019-04-28T01:57:01.142Z,100353.07
2019-04-28T01:59:30.286Z,100348.41
2019-04-28T02:02:00.074Z,100356.11
2019-04-28T02:04:30.096Z,100358.67
2019-04-28T02:06:59.808Z,100356.56
2019-04-28T02:09:29.636Z,100366.75
2019-04-28T02:11:58.334Z,100365.92
2019-04-28T02:14:26.867Z,100362.10
2019-04-28T02:16:55.292Z,100362.16
2019-04-28T02:19:23.796Z,100365.12
2019-04-28T02:21:54.506Z,100365.91
2019-04-28T02:24:36.815Z,100367.66
2019-04-28T02:27:06.212Z,100364.37
2019-04-28T02:29:35.076Z,100367.76
2019-04-28T02:32:04.079Z,100366.88
2019-04-28T02:34:32.535Z,100370.66
2019-04-28T02:37:01.758Z,100370.27
2019-04-28T02:39:31.470Z,100372.86
2019-04-28T02:42:01.484Z,100374.92
2019-04-28T02:44:33.431Z,100379.62
2019-04-28T02:47:01.267Z,100381.29
2019-04-28T02:49:40.857Z,100381.77
2019-04-28T02:52:16.681Z,100383.05
2019-04-28T02:54:45.465Z,100388.63
2019-04-28T02:57:13.916Z,100386.04
2019-04-28T02:59:44.745Z,100388.59
2019-04-28T03:02:12.517Z,100393.29
2019-04-28T03:04:41.608Z,100393.72
2019-04-28T03:07:11.456Z,100392.45
2019-04-28T03:09:40.531Z,100390.74
2019-04-28T03:12:11.270Z,100395.01
2019-04-28T03:14:43.294Z,100394.13
2019-04-28T03:17:10.910Z,100400.94
2019-04-28T03:19:41.641Z,100397.91
2019-04-28T03:22:11.576Z,100399.66
2019-04-28T03:24:41.328Z,100403.05
2019-04-28T03:27:26.473Z,100410.25
2019-04-28T03:30:05.825Z,100412.80
2019-04-28T03:32:45.046Z,100413.68
2019-04-28T03:35:06.377Z,100412.01
2019-04-28T03:37:34.859Z,100413.25
2019-04-28T03:40:04.045Z,100416.23
2019-04-28T03:42:32.460Z,100426.47
2019-04-28T03:45:02.580Z,100426.06
2019-04-28T03:47:31.568Z,100434.55
2019-04-28T03:50:00.316Z,100437.97
2019-04-28T03:52:31.566Z,100434.11
2019-04-28T03:55:00.511Z,100438.81
2019-04-28T03:57:31.475Z,100445.61
2019-04-28T04:00:01.464Z,100439.64
2019-04-28T04:02:31.110Z,100440.92
2019-04-28T04:05:03.337Z,100443.94
2019-04-28T04:07:31.110Z,100445.62
2019-04-28T04:10:04.141Z,100444.77
2019-04-28T04:12:34.235Z,100440.52
2019-04-28T04:15:04.407Z,100446.92
2019-04-28T04:17:34.505Z,100445.22
2019-04-28T04:20:03.423Z,100444.74
2019-04-28T04:22:31.877Z,100444.74
2019-04-28T04:25:01.316Z,100446.86
2019-04-28T04:27:30.838Z,100449.88
2019-04-28T04:30:01.597Z,100455.44
2019-04-28T04:32:30.398Z,100462.22
2019-04-28T04:35:00.715Z,100456.65
2019-04-28T04:37:30.798Z,100460.91
2019-04-28T04:40:01.207Z,100468.98
2019-04-28T04:42:30.669Z,100471.50
2019-04-28T04:45:00.577Z,100469.83
2019-04-28T04:47:32.515Z,100470.27
2019-04-28T04:50:00.355Z,100476.27
2019-04-28T04:52:30.409Z,100478.38
2019-04-28T04:55:01.280Z,100479.62
2019-04-28T04:57:32.415Z,100488.10
2019-04-28T05:00:00.818Z,100494.50
2019-04-28T05:02:36.935Z,100493.20
2019-04-28T05:05:08.237Z,100498.30
2019-04-28T05:07:36.698Z,100506.02
2019-04-28T05:10:07.256Z,100509.82
2019-04-28T05:12:35.686Z,100511.06
2019-04-28T05:15:05.889Z,100514.05
2019-04-28T05:17:34.354Z,100521.20
2019-04-28T05:20:02.877Z,100514.80
2019-04-28T05:22:32.970Z,100514.42
2019-04-28T05:25:03.153Z,100513.98
2019-04-28T05:27:32.572Z,100516.11
2019-04-28T05:30:04.360Z,100526.30
2019-04-28T05:32:42.411Z,100526.70
2019-04-28T05:35:01.648Z,100524.16
2019-04-28T05:37:30.075Z,100534.76
2019-04-28T05:40:00.658Z,100539.88
2019-04-28T05:42:30.233Z,100533.55
2019-04-28T05:44:59.940Z,100539.02
2019-04-28T05:47:30.545Z,100543.27
2019-04-28T05:50:01.041Z,100540.70
2019-04-28T05:52:40.329Z,100548.34
2019-04-28T05:55:13.432Z,100550.48
2019-04-28T05:57:55.270Z,100547.94
2019-04-28T06:00:39.948Z,100550.02
2019-04-28T06:03:21.716Z,100553.81
2019-04-28T06:05:50.164Z,100551.23
2019-04-28T06:08:26.175Z,100554.63
2019-04-28T06:10:55.171Z,100549.09
2019-04-28T06:13:24.207Z,100554.12
2019-04-28T06:15:54.659Z,100554.92
2019-04-28T06:18:23.085Z,100554.96
2019-04-28T06:20:52.192Z,100552.77
2019-04-28T06:23:21.173Z,100551.89
2019-04-28T06:25:49.610Z,100562.45
2019-04-28T06:28:18.046Z,100564.09
2019-04-28T06:30:46.651Z,100569.99
2019-04-28T06:33:15.131Z,100575.40
2019-04-28T06:35:43.771Z,100568.05
2019-04-28T06:38:12.288Z,100570.55
2019-04-28T06:40:40.880Z,100576.88
2019-04-28T06:43:09.646Z,100580.55
2019-04-28T06:45:38.064Z,100576.22
2019-04-28T06:48:06.505Z,100577.48
2019-04-28T06:50:35.170Z,100573.61
2019-04-28T06:53:03.736Z,100577.31
2019-04-28T06:55:32.274Z,100579.14
2019-04-28T06:58:00.716Z,100586.02
2019-04-28T07:00:29.160Z,100586.84
2019-04-28T07:02:58.254Z,100591.30
2019-04-28T07:05:28.709Z,100586.05
2019-04-28T07:07:57.356Z,100586.87
2019-04-28T07:10:26.619Z,100590.96
2019-04-28T07:12:55.418Z,100590.67
2019-04-28T07:15:24.376Z,100588.56
2019-04-28T07:17:52.838Z,100596.28
2019-04-28T07:20:28.721Z,100602.11
2019-04-28T07:22:57.176Z,100603.95
2019-04-28T07:25:25.653Z,100596.47
2019-04-28T07:27:54.100Z,100599.71
2019-04-28T07:30:23.329Z,100598.73
2019-04-28T07:32:52.288Z,100602.28
2019-04-28T07:35:20.854Z,100604.52
2019-04-28T07:37:49.335Z,100605.28
2019-04-28T07:40:17.781Z,100610.31
2019-04-28T07:42:46.248Z,100616.11
2019-04-28T07:45:15.140Z,100618.50
2019-04-28T07:47:43.586Z,100621.91
2019-04-28T07:50:12.323Z,100623.66
2019-04-28T07:52:58.515Z,100625.66
2019-04-28T07:55:26.997Z,100627.86
2019-04-28T07:57:55.425Z,100630.84
2019-04-28T08:00:29.318Z,100633.94
2019-04-28T08:02:57.921Z,100628.89
2019-04-28T08:05:26.452Z,100642.54
2019-04-28T08:07:54.948Z,100637.41
2019-04-28T08:10:23.943Z,100637.47
2019-04-28T08:12:52.616Z,100637.61
2019-04-28T08:15:21.137Z,100643.61
2019-04-28T08:17:49.918Z,100645.57
2019-04-28T08:20:18.395Z,100647.89
2019-04-28T08:22:46.985Z,100653.89
2019-04-28T08:25:15.798Z,100655.46
2019-04-28T08:27:44.257Z,100657.58
2019-04-28T08:30:13.381Z,100661.47
2019-04-28T08:32:56.043Z,100658.01
2019-04-28T08:35:24.978Z,100656.52
2019-04-28T08:37:55.234Z,100664.46
2019-04-28T08:40:24.225Z,100668.03
2019-04-28T08:42:53.230Z,100659.32
2019-04-28T08:45:23.760Z,100663.77
2019-04-28T08:47:54.879Z,100675.13
2019-04-28T08:50:25.761Z,100676.70
2019-04-28T08:52:54.442Z,100682.72
2019-04-28T08:55:23.616Z,100678.58
2019-04-28T08:57:53.626Z,100683.78
2019-04-28T09:00:22.940Z,100685.14
2019-04-28T09:02:51.797Z,100691.10
2019-04-28T09:05:21.019Z,100693.23
2019-04-28T09:07:49.624Z,100697.72
2019-04-28T09:10:19.446Z,100701.29
2019-04-28T09:12:47.915Z,100700.63
2019-04-28T09:15:16.478Z,100701.27
2019-04-28T09:17:52.979Z,100705.01
2019-04-28T09:20:21.421Z,100699.20
2019-04-28T09:22:49.864Z,100711.30
2019-04-28T09:25:18.299Z,100708.16
2019-04-28T09:27:46.739Z,100719.13
2019-04-28T09:30:15.406Z,100715.77
2019-04-28T09:32:43.841Z,100719.13
2019-04-28T09:35:12.409Z,100721.91
2019-04-28T09:37:40.915Z,100724.92
2019-04-28T09:40:11.436Z,100726.95
2019-04-28T09:42:53.628Z,100731.06
2019-04-28T09:45:23.746Z,100734.78
2019-04-28T09:47:52.197Z,100738.94
2019-04-28T09:50:20.705Z,100744.98
2019-04-28T09:52:49.415Z,100735.72
2019-04-28T09:55:17.835Z,100736.36
2019-04-28T09:57:46.369Z,100735.70
2019-04-28T10:00:15.265Z,100736.05
2019-04-28T10:02:43.704Z,100734.94
2019-04-28T10:05:13.107Z,100732.42
2019-04-28T10:07:42.001Z,100731.27
2019-04-28T10:10:11.415Z,100728.55
2019-04-28T10:12:41.349Z,100725.20
2019-04-28T10:15:10.187Z,100728.20
2019-04-28T10:17:38.784Z,100714.47
2019-04-28T10:20:09.014Z,100726.49
2019-04-28T10:22:37.873Z,100727.27
2019-04-28T10:25:08.513Z,100730.61
2019-04-28T10:27:37.098Z,100727.52
2019-04-28T10:30:10.026Z,100728.23
2019-04-28T10:32:39.231Z,100725.06
2019-04-28T10:35:08.356Z,100735.13
2019-04-28T10:37:37.616Z,100729.86
2019-04-28T10:40:09.109Z,100726.15
2019-04-28T10:42:39.190Z,100728.77
2019-04-28T10:45:09.871Z,100732.27
2019-04-28T10:47:38.518Z,100727.12
2019-04-28T10:50:07.565Z,100726.74
2019-04-28T10:52:37.230Z,100730.03
2019-04-28T10:55:06.296Z,100731.87
2019-04-28T10:57:34.741Z,100726.50
2019-04-28T11:00:03.999Z,100728.92
2019-04-28T11:02:32.496Z,100729.55
2019-04-28T11:05:08.460Z,100730.02
2019-04-28T11:07:33.154Z,100736.25
2019-04-28T11:10:18.338Z,100731.20
2019-04-28T11:12:46.898Z,100731.84
2019-04-28T11:15:17.557Z,100734.75
2019-04-28T11:17:46.077Z,100737.39
2019-04-28T11:20:14.696Z,100734.64
2019-04-28T11:22:43.612Z,100734.80
2019-04-28T11:25:13.351Z,100739.08
2019-04-28T11:27:41.744Z,100732.34
2019-04-28T11:30:11.190Z,100739.94
2019-04-28T11:32:41.855Z,100743.24
2019-04-28T11:35:21.242Z,100742.46
2019-04-28T11:37:42.520Z,100753.09
2019-04-28T11:40:11.084Z,100751.55
2019-04-28T11:42:39.562Z,100754.27
2019-04-28T11:45:08.349Z,100752.55
2019-04-28T11:47:36.840Z,100759.44
2019-04-28T11:50:06.078Z,100759.98
2019-04-28T11:52:34.515Z,100760.34
2019-04-28T11:55:03.138Z,100762.66
2019-04-28T11:57:31.608Z,100761.03
2019-04-28T12:00:00.226Z,100768.81
2019-04-28T12:02:29.447Z,100769.50
2019-04-28T12:04:59.669Z,100768.70
2019-04-28T12:07:28.151Z,100781.88
2019-04-28T12:10:05.434Z,100780.55
2019-04-28T12:12:38.249Z,100777.06
2019-04-28T12:15:20.713Z,100785.63
2019-04-28T12:17:57.003Z,100782.70
2019-04-28T12:20:26.834Z,100788.92
2019-04-28T12:22:55.270Z,100788.20
2019-04-28T12:25:23.709Z,100790.66
2019-04-28T12:27:52.134Z,100786.17
2019-04-28T12:30:20.658Z,100786.38
2019-04-28T12:32:49.083Z,100788.41
2019-04-28T12:35:18.546Z,100796.68
2019-04-28T12:37:47.247Z,100799.94
2019-04-28T12:40:16.096Z,100801.75
2019-04-28T12:42:44.549Z,100805.88
2019-04-28T12:45:13.106Z,100810.87
2019-04-28T12:47:41.544Z,100811.16
2019-04-28T12:50:21.107Z,100803.78
2019-04-28T12:52:49.629Z,100808.14
2019-04-28T12:55:18.214Z,100808.38
2019-04-28T12:57:46.618Z,100807.16
2019-04-28T13:00:26.841Z,100805.19
2019-04-28T13:03:14.986Z,100807.41
2019-04-28T13:05:45.474Z,100807.69
2019-04-28T13:08:14.004Z,100803.20
2019-04-28T13:10:42.509Z,100808.70
2019-04-28T13:13:10.943Z,100811.49
2019-04-28T13:15:39.397Z,100813.58
2019-04-28T13:18:07.818Z,100819.03
2019-04-28T13:20:36.643Z,100818.17
2019-04-28T13:23:05.140Z,100812.97
2019-04-28T13:25:33.636Z,100820.81
2019-04-28T13:28:02.011Z,100818.92
2019-04-28T13:30:30.439Z,100819.91
2019-04-28T13:32:58.902Z,100826.86
2019-04-28T13:35:27.477Z,100825.03
2019-04-28T13:37:55.930Z,100828.33
2019-04-28T13:40:26.019Z,100829.23
2019-04-28T13:42:54.429Z,100832.73
2019-04-28T13:45:29.828Z,100826.84
2019-04-28T13:47:59.520Z,100827.64
2019-04-28T13:50:32.892Z,100825.56
2019-04-28T13:53:01.393Z,100820.73
2019-04-28T13:55:46.883Z,100822.92
2019-04-28T13:58:17.542Z,100814.85
2019-04-28T14:00:53.421Z,100813.61
2019-04-28T14:03:38.719Z,100815.63
2019-04-28T14:06:08.901Z,100820.72
2019-04-28T14:08:37.349Z,100810.59
2019-04-28T14:11:05.904Z,100819.58
2019-04-28T14:13:34.359Z,100824.62
2019-04-28T14:16:03.457Z,100818.68
2019-04-28T14:18:31.957Z,100818.29
2019-04-28T14:21:00.479Z,100813.48
2019-04-28T14:23:28.900Z,100813.86
2019-04-28T14:25:57.395Z,100809.87
2019-04-28T14:28:25.829Z,100812.11
2019-04-28T14:30:54.246Z,100809.39
2019-04-28T14:33:22.712Z,100810.61
2019-04-28T14:35:51.140Z,100809.33
2019-04-28T14:38:19.579Z,100818.84
2019-04-28T14:40:48.054Z,100814.49
2019-04-28T14:43:16.505Z,100813.22
2019-04-28T14:45:45.441Z,100812.84
2019-04-28T14:48:13.851Z,100815.38
2019-04-28T14:50:42.526Z,100811.78
2019-04-28T14:53:11.012Z,100808.65
2019-04-28T14:55:39.427Z,100808.03
2019-04-28T14:58:07.912Z,100814.59
2019-04-28T15:00:44.141Z,100812.38
2019-04-28T15:03:14.254Z,100815.00
2019-04-28T15:05:50.373Z,100811.73
2019-04-28T15:08:36.626Z,100818.88
2019-04-28T15:11:06.786Z,100814.77
2019-04-28T15:13:35.223Z,100811.64
2019-04-28T15:16:03.760Z,100815.31
2019-04-28T15:18:33.195Z,100812.48
2019-04-28T15:21:01.722Z,100815.58
2019-04-28T15:23:30.156Z,100815.74
2019-04-28T15:25:58.602Z,100815.77
2019-04-28T15:28:27.192Z,100821.61
2019-04-28T15:30:55.637Z,100815.86
2019-04-28T15:33:24.177Z,100822.45
2019-04-28T15:35:52.694Z,100818.12
2019-04-28T15:38:21.104Z,100820.22
2019-04-28T15:40:49.669Z,100813.95
2019-04-28T15:43:18.133Z,100817.70
2019-04-28T15:45:46.702Z,100817.04
2019-04-28T15:48:15.205Z,100815.84
2019-04-28T15:50:45.207Z,100820.54
2019-04-28T15:53:13.649Z,100819.87
2019-04-28T15:55:49.851Z,100817.47
2019-04-28T15:58:29.126Z,100814.71
2019-04-28T16:00:57.735Z,100822.20
2019-04-28T16:03:26.458Z,100819.45
2019-04-28T16:05:55.030Z,100823.83
2019-04-28T16:08:23.468Z,100819.50
2019-04-28T16:10:52.256Z,100820.17
2019-04-28T16:13:21.629Z,100816.98
2019-04-28T16:15:50.164Z,100825.23
2019-04-28T16:18:18.615Z,100829.53
2019-04-28T16:20:47.305Z,100827.50
2019-04-28T16:23:15.804Z,100825.59
2019-04-28T16:25:44.407Z,100824.59
2019-04-28T16:28:13.042Z,100820.95
2019-04-28T16:30:41.637Z,100829.78
2019-04-28T16:33:10.076Z,100830.59
2019-04-28T16:35:38.541Z,100830.31
2019-04-28T16:38:06.980Z,100838.28
2019-04-28T16:40:41.397Z,100835.35
2019-04-28T16:43:19.285Z,100830.34
2019-04-28T16:45:47.716Z,100840.16
2019-04-28T16:48:16.274Z,100841.21
2019-04-28T16:50:44.746Z,100837.59
2019-04-28T16:53:13.316Z,100839.08
2019-04-28T16:55:46.619Z,100839.82
2019-04-28T16:58:19.369Z,100837.59
2019-04-28T17:00:58.631Z,100839.16
2019-04-28T17:03:28.885Z,100839.14
2019-04-28T17:05:57.399Z,100847.61
2019-04-28T17:08:26.074Z,100845.65
2019-04-28T17:10:54.491Z,100847.66
2019-04-28T17:13:22.929Z,100852.30
2019-04-28T17:15:51.441Z,100854.75
2019-04-28T17:18:19.886Z,100854.08
2019-04-28T17:20:48.414Z,100861.39
2019-04-28T17:23:16.805Z,100856.72
2019-04-28T17:25:45.349Z,100858.83
2019-04-28T17:28:13.888Z,100856.91
2019-04-28T17:30:42.490Z,100861.02
2019-04-28T17:33:11.688Z,100860.55
2019-04-28T17:35:40.137Z,100866.05
2019-04-28T17:38:08.674Z,100863.54
2019-04-28T17:40:37.662Z,100870.02
2019-04-28T17:43:06.955Z,100866.11
2019-04-28T17:45:35.858Z,100874.73
2019-04-28T17:48:08.929Z,100873.50
2019-04-28T17:50:37.515Z,100875.62
2019-04-28T17:53:07.455Z,100884.98
2019-04-28T17:55:35.915Z,100884.09
2019-04-28T17:58:04.334Z,100886.20
2019-04-28T18:00:36.948Z,100888.77
2019-04-28T18:03:09.896Z,100890.61
2019-04-28T18:05:40.039Z,100890.07
2019-04-28T18:08:20.416Z,100892.82
2019-04-28T18:10:38.763Z,100897.64
2019-04-28T18:13:07.347Z,100904.52
2019-04-28T18:15:40.268Z,100904.16
2019-04-28T18:18:17.165Z,100906.44
2019-04-28T18:20:45.729Z,100907.05
2019-04-28T18:23:14.173Z,100914.68
2019-04-28T18:25:44.509Z,100916.54
2019-04-28T18:28:12.909Z,100920.36
2019-04-28T18:30:42.980Z,100928.59
2019-04-28T18:33:29.200Z,100925.68
2019-04-28T18:35:59.362Z,100936.50
2019-04-28T18:38:38.785Z,100938.69
2019-04-28T18:41:08.847Z,100946.99
2019-04-28T18:43:47.789Z,100948.73
2019-04-28T18:46:18.423Z,100956.05
2019-04-28T18:48:47.204Z,100954.40
2019-04-28T18:51:15.654Z,100963.03
2019-04-28T18:53:44.625Z,100963.53
2019-04-28T18:56:13.668Z,100965.75
2019-04-28T18:58:42.096Z,100968.38
2019-04-28T19:01:13.071Z,100976.98
2019-04-28T19:03:41.639Z,100979.27
2019-04-28T19:06:10.159Z,100982.30
2019-04-28T19:08:48.998Z,100976.41
2019-04-28T19:11:17.578Z,100981.25
2019-04-28T19:13:47.669Z,100988.61
2019-04-28T19:16:26.828Z,100987.77
2019-04-28T19:18:57.177Z,100989.22
2019-04-28T19:21:25.637Z,100990.64
2019-04-28T19:23:54.311Z,100988.13
2019-04-28T19:26:22.696Z,100993.44
2019-04-28T19:28:51.127Z,100999.70
2019-04-28T19:31:19.616Z,101002.70
2019-04-28T19:33:48.050Z,100995.12
2019-04-28T19:36:16.495Z,101005.34
2019-04-28T19:38:44.953Z,101005.34
2019-04-28T19:41:13.769Z,101006.19
2019-04-28T19:43:42.461Z,101007.08
2019-04-28T19:46:12.539Z,101004.55
2019-04-28T19:48:41.056Z,101010.14
2019-04-28T19:51:09.519Z,101008.47
2019-04-28T19:53:37.956Z,101008.50
2019-04-28T19:56:09.530Z,101016.58
2019-04-28T19:58:51.321Z,101016.31
2019-04-28T20:01:21.582Z,101015.55
2019-04-28T20:03:50.044Z,101014.71
2019-04-28T20:06:18.504Z,101018.08
2019-04-28T20:08:46.929Z,101021.09
2019-04-28T20:11:15.354Z,101028.79
2019-04-28T20:13:43.765Z,101023.22
2019-04-28T20:16:12.209Z,101028.74
2019-04-28T20:18:41.061Z,101032.58
2019-04-28T20:21:09.548Z,101033.86
2019-04-28T20:23:38.861Z,101034.72
2019-04-28T20:26:07.380Z,101039.88
2019-04-28T20:28:35.841Z,101039.01
2019-04-28T20:31:04.345Z,101040.75
2019-04-28T20:33:32.771Z,101045.44
2019-04-28T20:36:11.367Z,101047.61
2019-04-28T20:38:39.876Z,101046.73
2019-04-28T20:41:10.292Z,101044.61
2019-04-28T20:43:38.876Z,101042.11
2019-04-28T20:46:07.315Z,101049.38
2019-04-28T20:48:35.745Z,101051.04
2019-04-28T20:51:04.279Z,101052.75
2019-04-28T20:53:32.732Z,101056.58
2019-04-28T20:56:01.160Z,101059.58
2019-04-28T20:58:29.612Z,101057.89
2019-04-28T21:00:58.033Z,101059.17
2019-04-28T21:03:26.500Z,101061.73
2019-04-28T21:05:54.961Z,101066.44
2019-04-28T21:08:23.440Z,101065.13
2019-04-28T21:10:52.229Z,101068.11
2019-04-28T21:13:20.671Z,101060.87
2019-04-28T21:15:49.086Z,101065.98
2019-04-28T21:18:17.534Z,101070.70
2019-04-28T21:20:45.984Z,101070.25
2019-04-28T21:23:14.415Z,101070.25
2019-04-28T21:25:42.952Z,101066.86
2019-04-28T21:28:11.379Z,101066.00
2019-04-28T21:30:39.810Z,101074.51
2019-04-28T21:33:08.265Z,101074.08
2019-04-28T21:35:36.692Z,101070.70
2019-04-28T21:38:05.141Z,101067.30
2019-04-28T21:40:33.937Z,101063.45
2019-04-28T21:43:16.131Z,101068.98
2019-04-28T21:45:58.574Z,101070.27
2019-04-28T21:48:34.655Z,101077.09
2019-04-28T21:51:03.175Z,101068.97
2019-04-28T21:53:31.576Z,101064.73
2019-04-28T21:56:00.006Z,101072.38
2019-04-28T21:58:33.231Z,101071.94
2019-04-28T22:00:59.779Z,101079.59
2019-04-28T22:03:28.287Z,101071.93
2019-04-28T22:05:56.823Z,101074.89
2019-04-28T22:08:25.248Z,101076.53
2019-04-28T22:10:53.735Z,101071.41
2019-04-28T22:13:22.231Z,101075.67
2019-04-28T22:15:50.650Z,101076.59
2019-04-28T22:18:19.646Z,101073.60
2019-04-28T22:20:48.123Z,101079.14
2019-04-28T22:23:21.687Z,101080.42
2019-04-28T22:25:50.134Z,101076.59
2019-04-28T22:28:18.588Z,101082.53
2019-04-28T22:30:47.044Z,101079.91
2019-04-28T22:33:15.561Z,101085.44
2019-04-28T22:35:45.422Z,101086.73
2019-04-28T22:38:13.846Z,101090.58
2019-04-28T22:40:42.286Z,101088.87
2019-04-28T22:43:11.169Z,101080.80
2019-04-28T22:45:39.667Z,101086.71
2019-04-28T22:48:09.942Z,101085.44
2019-04-28T22:50:41.249Z,101088.40
2019-04-28T22:53:10.213Z,101091.78
2019-04-28T22:55:43.296Z,101094.35
2019-04-28T22:58:16.135Z,101101.98
2019-04-28T23:00:52.307Z,101097.30
2019-04-28T23:03:38.927Z,101097.31
2019-04-28T23:06:10.335Z,101094.33
2019-04-28T23:08:37.885Z,101101.98
2019-04-28T23:11:06.324Z,101101.59
2019-04-28T23:13:34.843Z,101108.36
2019-04-28T23:16:03.286Z,101102.43
2019-04-28T23:18:31.746Z,101108.80
2019-04-28T23:21:01.960Z,101108.80
2019-04-28T23:23:30.413Z,101110.92
2019-04-28T23:25:58.891Z,101110.91
2019-04-28T23:28:27.322Z,101109.22
2019-04-28T23:30:56.545Z,101116.78
2019-04-28T23:33:25.005Z,101112.09
2019-04-28T23:35:53.656Z,101103.65
2019-04-28T23:38:22.087Z,101107.92
2019-04-28T23:41:10.253Z,101105.35
2019-04-28T23:43:38.754Z,101108.77
2019-04-28T23:46:07.172Z,101108.34
2019-04-28T23:48:35.662Z,101106.64
2019-04-28T23:51:08.597Z,101104.52
2019-04-28T23:53:44.901Z,101111.33
2019-04-28T23:56:13.457Z,101104.48
2019-04-28T23:58:41.903Z,101105.75
